createdAt,value
2019-01-19T00:02:19.549Z,9.73
2019-01-19T00:05:25.718Z,8.70
2019-01-19T00:08:26.965Z,8.93
2019-01-19T00:11:27.870Z,9.20
2019-01-19T00:14:59.586Z,8.27
2019-01-19T00:18:35.025Z,10.40
2019-01-19T00:21:35.840Z,8.03
2019-01-19T00:24:46.832Z,8.40
2019-01-19T00:27:52.384Z,9.10
2019-01-19T00:30:35.275Z,8.67
2019-01-19T00:34:01.405Z,9.20
2019-01-19T00:36:45.700Z,8.73
2019-01-19T00:40:05.167Z,13.40
2019-01-19T00:43:07.357Z,12.70
2019-01-19T00:46:28.789Z,36.87
2019-01-19T00:49:14.866Z,16.77
2019-01-19T00:52:30.717Z,12.97
2019-01-19T00:55:25.987Z,14.10
2019-01-19T00:58:52.210Z,11.53
2019-01-19T01:01:56.857Z,14.63
2019-01-19T01:04:49.649Z,15.73
2019-01-19T01:08:21.558Z,14.70
2019-01-19T01:11:11.084Z,11.40
2019-01-19T01:14:27.582Z,19.83
2019-01-19T01:17:25.971Z,18.10
2019-01-19T01:20:29.815Z,17.03
2019-01-19T01:23:12.419Z,12.43
2019-01-19T01:26:21.837Z,10.10
2019-01-19T01:29:27.118Z,13.60
2019-01-19T01:32:18.074Z,10.40
2019-01-19T01:35:20.071Z,8.83
2019-01-19T01:38:04.824Z,8.10
2019-01-19T01:41:13.980Z,10.37
2019-01-19T01:44:17.639Z,6.83
2019-01-19T01:47:43.068Z,11.03
2019-01-19T01:50:49.429Z,7.47
2019-01-19T01:53:47.901Z,7.23
2019-01-19T01:56:22.830Z,8.97
2019-01-19T01:59:38.599Z,7.33
2019-01-19T02:02:58.517Z,7.57
2019-01-19T02:05:45.057Z,6.90
2019-01-19T02:08:51.776Z,6.73
2019-01-19T02:11:44.526Z,6.40
2019-01-19T02:15:06.154Z,8.60
2019-01-19T02:18:24.472Z,11.40
2019-01-19T02:21:31.438Z,6.77
2019-01-19T02:24:57.622Z,7.17
2019-01-19T02:28:05.882Z,8.53
2019-01-19T02:31:21.687Z,6.53
2019-01-19T02:34:33.577Z,6.53
2019-01-19T02:37:55.112Z,6.93
2019-01-19T02:40:59.421Z,7.30
2019-01-19T02:44:10.647Z,7.70
2019-01-19T02:47:10.606Z,11.03
2019-01-19T02:50:00.886Z,7.07
2019-01-19T02:53:14.654Z,7.17
2019-01-19T02:56:10.030Z,8.03
2019-01-19T02:59:20.000Z,8.90
2019-01-19T03:02:03.002Z,9.53
2019-01-19T03:05:24.377Z,8.40
2019-01-19T03:08:41.643Z,6.33
2019-01-19T03:11:49.783Z,7.80
2019-01-19T03:15:03.941Z,10.40
2019-01-19T03:18:17.612Z,7.08
2019-01-19T03:21:38.175Z,7.70
2019-01-19T03:24:57.827Z,7.80
2019-01-19T03:28:17.470Z,10.70
2019-01-19T03:31:32.402Z,11.03
2019-01-19T03:34:44.581Z,8.28
2019-01-19T03:37:56.211Z,9.60
2019-01-19T03:41:30.913Z,7.73
2019-01-19T03:44:21.082Z,8.17
2019-01-19T03:47:28.968Z,8.70
2019-01-19T03:50:41.779Z,8.73
2019-01-19T03:54:00.476Z,8.77
2019-01-19T03:56:49.275Z,9.10
2019-01-19T03:59:46.519Z,10.30
2019-01-19T04:02:59.952Z,8.97
2019-01-19T04:06:17.752Z,11.57
2019-01-19T04:09:30.314Z,9.17
2019-01-19T04:12:38.249Z,9.70
2019-01-19T04:16:01.773Z,9.33
2019-01-19T04:19:04.484Z,9.87
2019-01-19T04:21:54.291Z,8.53
2019-01-19T04:24:42.510Z,10.80
2019-01-19T04:27:16.719Z,9.40
2019-01-19T04:29:51.831Z,9.65
2019-01-19T04:32:26.717Z,10.37
2019-01-19T04:35:01.635Z,8.63
2019-01-19T04:37:36.388Z,9.63
2019-01-19T04:40:12.731Z,9.43
2019-01-19T04:42:48.154Z,9.25
2019-01-19T04:45:22.393Z,8.35
2019-01-19T04:47:57.088Z,9.68
2019-01-19T04:50:31.359Z,9.97
2019-01-19T04:53:06.375Z,9.08
2019-01-19T04:55:40.842Z,9.33
2019-01-19T04:58:15.612Z,9.57
2019-01-19T05:00:50.090Z,9.27
2019-01-19T05:03:24.461Z,9.40
2019-01-19T05:05:58.881Z,9.13
2019-01-19T05:08:32.950Z,9.53
2019-01-19T05:11:07.630Z,9.90
2019-01-19T05:13:42.298Z,9.30
2019-01-19T05:16:16.576Z,8.93
2019-01-19T05:18:51.050Z,10.10
2019-01-19T05:21:25.439Z,9.10
2019-01-19T05:24:00.061Z,9.97
2019-01-19T05:26:34.356Z,9.53
2019-01-19T05:29:09.012Z,9.23
2019-01-19T05:31:43.263Z,8.85
2019-01-19T05:34:17.328Z,9.43
2019-01-19T05:36:51.914Z,9.25
2019-01-19T05:39:26.691Z,9.83
2019-01-19T05:42:00.814Z,9.65
2019-01-19T05:44:35.379Z,9.68
2019-01-19T05:47:10.255Z,9.75
2019-01-19T05:49:44.824Z,9.10
2019-01-19T05:52:19.014Z,9.43
2019-01-19T05:54:54.000Z,8.95
2019-01-19T05:57:28.664Z,9.73
2019-01-19T06:00:03.643Z,10.13
2019-01-19T06:02:38.676Z,8.80
2019-01-19T06:05:13.008Z,9.83
2019-01-19T06:07:47.480Z,9.63
2019-01-19T06:10:22.271Z,9.73
2019-01-19T06:12:58.630Z,9.47
2019-01-19T06:15:33.114Z,9.75
2019-01-19T06:18:07.714Z,10.08
2019-01-19T06:20:42.249Z,9.18
2019-01-19T06:23:17.184Z,9.25
2019-01-19T06:25:51.438Z,9.93
2019-01-19T06:28:26.244Z,9.65
2019-01-19T06:31:00.632Z,9.95
2019-01-19T06:33:34.847Z,10.28
2019-01-19T06:36:09.361Z,10.20
2019-01-19T06:38:44.156Z,9.60
2019-01-19T06:41:18.642Z,9.13
2019-01-19T06:43:53.347Z,9.83
2019-01-19T06:46:28.278Z,9.65
2019-01-19T06:49:02.762Z,10.08
2019-01-19T06:51:37.082Z,10.75
2019-01-19T06:54:12.273Z,10.23
2019-01-19T06:56:47.158Z,10.58
2019-01-19T06:59:21.586Z,11.03
2019-01-19T07:01:55.350Z,10.65
2019-01-19T07:04:29.722Z,10.23
2019-01-19T07:07:04.157Z,10.78
2019-01-19T07:09:40.076Z,10.43
2019-01-19T07:12:16.912Z,10.78
2019-01-19T07:14:51.920Z,11.18
2019-01-19T07:17:26.116Z,10.60
2019-01-19T07:20:01.310Z,10.80
2019-01-19T07:22:35.595Z,11.15
2019-01-19T07:25:10.404Z,11.10
2019-01-19T07:27:44.747Z,11.22
2019-01-19T07:30:20.227Z,12.05
2019-01-19T07:32:54.428Z,11.45
2019-01-19T07:35:28.970Z,10.75
2019-01-19T07:38:03.845Z,11.12
2019-01-19T07:40:38.663Z,11.25
2019-01-19T07:43:15.937Z,12.18
2019-01-19T07:45:50.037Z,12.07
2019-01-19T07:48:24.221Z,11.25
2019-01-19T07:50:59.063Z,11.20
2019-01-19T07:53:33.800Z,11.18
2019-01-19T07:56:09.254Z,11.28
2019-01-19T07:58:44.060Z,10.97
2019-01-19T08:01:18.713Z,10.90
2019-01-19T08:03:53.967Z,10.73
2019-01-19T08:06:28.561Z,11.35
2019-01-19T08:09:03.264Z,11.28
2019-01-19T08:11:38.086Z,10.90
2019-01-19T08:14:12.332Z,11.33
2019-01-19T08:16:46.586Z,11.12
2019-01-19T08:19:21.036Z,11.43
2019-01-19T08:21:56.234Z,11.65
2019-01-19T08:24:30.687Z,11.33
2019-01-19T08:27:05.417Z,11.22
2019-01-19T08:29:40.620Z,10.90
2019-01-19T08:32:15.526Z,11.45
2019-01-19T08:34:50.547Z,11.20
2019-01-19T08:37:25.093Z,13.35
2019-01-19T08:39:59.864Z,11.20
2019-01-19T08:42:34.682Z,10.63
2019-01-19T08:45:09.667Z,11.08
2019-01-19T08:47:44.011Z,10.80
2019-01-19T08:50:24.909Z,11.10
2019-01-19T08:52:59.264Z,11.12
2019-01-19T08:55:34.132Z,11.53
2019-01-19T08:58:08.752Z,11.18
2019-01-19T09:00:43.510Z,10.63
2019-01-19T09:03:17.927Z,11.22
2019-01-19T09:05:53.104Z,10.65
2019-01-19T09:08:27.865Z,10.58
2019-01-19T09:11:03.828Z,10.53
2019-01-19T09:13:38.432Z,11.35
2019-01-19T09:16:24.381Z,10.55
2019-01-19T09:18:58.821Z,10.80
2019-01-19T09:21:33.509Z,11.57
2019-01-19T09:24:29.469Z,11.03
2019-01-19T09:27:03.741Z,10.72
2019-01-19T09:29:38.516Z,10.65
2019-01-19T09:32:13.543Z,11.10
2019-01-19T09:34:47.977Z,11.08
2019-01-19T09:37:22.649Z,10.25
2019-01-19T09:39:59.414Z,10.82
2019-01-19T09:42:34.486Z,11.05
2019-01-19T09:45:09.484Z,9.83
2019-01-19T09:47:44.370Z,10.35
2019-01-19T09:50:19.685Z,10.53
2019-01-19T09:52:54.266Z,10.98
2019-01-19T09:55:28.819Z,11.28
2019-01-19T09:58:03.897Z,10.63
2019-01-19T10:00:45.426Z,10.50
2019-01-19T10:03:14.817Z,11.22
2019-01-19T10:05:49.631Z,10.55
2019-01-19T10:08:24.337Z,11.00
2019-01-19T10:10:59.291Z,10.60
2019-01-19T10:13:34.009Z,9.93
2019-01-19T10:16:09.923Z,12.33
2019-01-19T10:18:44.261Z,11.55
2019-01-19T10:21:25.980Z,10.93
2019-01-19T10:24:00.786Z,10.53
2019-01-19T10:26:42.319Z,10.00
2019-01-19T10:29:17.590Z,10.28
2019-01-19T10:31:52.454Z,10.50
2019-01-19T10:34:27.132Z,10.63
2019-01-19T10:37:01.483Z,9.90
2019-01-19T10:39:36.185Z,10.93
2019-01-19T10:42:10.868Z,10.70
2019-01-19T10:44:45.298Z,10.60
2019-01-19T10:47:20.542Z,11.08
2019-01-19T10:49:55.003Z,10.68
2019-01-19T10:52:30.230Z,10.78
2019-01-19T10:55:04.963Z,10.15
2019-01-19T10:57:39.932Z,10.82
2019-01-19T11:00:19.136Z,10.32
2019-01-19T11:02:53.724Z,10.50
2019-01-19T11:05:29.992Z,11.18
2019-01-19T11:08:05.103Z,9.98
2019-01-19T11:10:39.814Z,11.00
2019-01-19T11:13:14.861Z,10.78
2019-01-19T11:15:49.280Z,10.63
2019-01-19T11:18:30.972Z,10.72
2019-01-19T11:21:05.605Z,10.95
2019-01-19T11:23:40.569Z,11.00
2019-01-19T11:26:15.578Z,11.22
2019-01-19T11:28:50.989Z,11.90
2019-01-19T11:31:26.225Z,11.28
2019-01-19T11:34:01.038Z,12.00
2019-01-19T11:36:35.711Z,12.55
2019-01-19T11:39:12.615Z,12.28
2019-01-19T11:41:47.220Z,12.33
2019-01-19T11:44:22.070Z,13.10
2019-01-19T11:46:56.678Z,11.18
2019-01-19T11:49:31.793Z,12.58
2019-01-19T11:52:06.400Z,12.15
2019-01-19T11:54:41.251Z,12.43
2019-01-19T11:57:15.985Z,12.90
2019-01-19T11:59:50.413Z,12.68
2019-01-19T12:02:25.187Z,12.90
2019-01-19T12:04:59.930Z,12.88
2019-01-19T12:07:34.990Z,12.37
2019-01-19T12:10:10.744Z,12.50
2019-01-19T12:12:45.927Z,13.35
2019-01-19T12:15:20.472Z,12.78
2019-01-19T12:17:55.061Z,11.90
2019-01-19T12:20:40.818Z,14.57
2019-01-19T12:23:15.312Z,12.47
2019-01-19T12:25:49.772Z,13.53
2019-01-19T12:28:24.748Z,12.82
2019-01-19T12:30:59.225Z,12.60
2019-01-19T12:33:34.034Z,12.03
2019-01-19T12:36:08.318Z,12.03
2019-01-19T12:38:42.681Z,12.53
2019-01-19T12:41:17.614Z,12.53
2019-01-19T12:43:52.249Z,12.73
2019-01-19T12:46:26.913Z,12.40
2019-01-19T12:49:01.326Z,12.53
2019-01-19T12:51:36.288Z,14.47
2019-01-19T12:54:10.955Z,12.73
2019-01-19T12:56:45.355Z,12.53
2019-01-19T12:59:20.535Z,12.33
2019-01-19T13:01:55.276Z,12.03
2019-01-19T13:04:29.555Z,12.30
2019-01-19T13:07:14.534Z,13.87
2019-01-19T13:10:02.678Z,12.07
2019-01-19T13:12:56.857Z,12.20
2019-01-19T13:16:13.714Z,12.50
2019-01-19T13:19:32.710Z,11.53
2019-01-19T13:22:31.818Z,12.27
2019-01-19T13:25:40.434Z,12.10
2019-01-19T13:28:55.895Z,11.40
2019-01-19T13:31:53.981Z,12.07
2019-01-19T13:35:11.284Z,13.07
2019-01-19T13:38:16.391Z,10.90
2019-01-19T13:41:33.377Z,11.73
2019-01-19T13:44:37.811Z,11.63
2019-01-19T13:47:38.525Z,11.47
2019-01-19T13:50:41.312Z,14.20
2019-01-19T13:53:51.174Z,12.30
2019-01-19T13:56:47.553Z,11.63
2019-01-19T14:00:07.920Z,12.83
2019-01-19T14:03:40.120Z,12.43
2019-01-19T14:06:40.604Z,12.17
2019-01-19T14:09:55.801Z,12.87
2019-01-19T14:13:16.390Z,16.33
2019-01-19T14:16:14.264Z,13.40
2019-01-19T14:19:43.349Z,16.70
2019-01-19T14:22:55.870Z,14.53
2019-01-19T14:26:01.371Z,15.33
2019-01-19T14:29:10.877Z,14.10
2019-01-19T14:32:37.894Z,14.90
2019-01-19T14:35:48.691Z,15.10
2019-01-19T14:38:56.902Z,15.67
2019-01-19T14:42:11.363Z,16.47
2019-01-19T14:45:11.568Z,15.93
2019-01-19T14:47:57.442Z,18.13
2019-01-19T14:51:15.767Z,16.67
2019-01-19T14:54:10.095Z,17.27
2019-01-19T14:56:54.132Z,16.20
2019-01-19T15:00:15.678Z,17.20
2019-01-19T15:03:33.297Z,17.70
2019-01-19T15:07:02.727Z,17.60
2019-01-19T15:10:09.677Z,17.23
2019-01-19T15:13:19.552Z,16.47
2019-01-19T15:16:25.143Z,17.93
2019-01-19T15:19:38.953Z,19.37
2019-01-19T15:22:41.937Z,17.53
2019-01-19T15:26:13.838Z,21.43
2019-01-19T15:29:06.634Z,19.07
2019-01-19T15:32:17.878Z,18.83
2019-01-19T15:35:40.761Z,19.70
2019-01-19T15:38:51.348Z,19.23
2019-01-19T15:41:57.536Z,18.23
2019-01-19T15:44:42.675Z,19.97
2019-01-19T15:48:02.611Z,18.63
2019-01-19T15:51:14.819Z,21.33
2019-01-19T15:54:16.864Z,21.75
2019-01-19T15:57:27.376Z,20.50
2019-01-19T16:00:31.347Z,20.53
2019-01-19T16:03:47.904Z,20.03
2019-01-19T16:06:37.372Z,21.23
2019-01-19T16:09:31.663Z,19.32
2019-01-19T16:12:46.013Z,19.75
2019-01-19T16:16:08.520Z,20.83
2019-01-19T16:19:04.108Z,21.60
2019-01-19T16:21:54.808Z,21.17
2019-01-19T16:25:17.255Z,21.43
2019-01-19T16:28:16.513Z,20.30
2019-01-19T16:31:25.505Z,20.50
2019-01-19T16:34:32.162Z,20.60
2019-01-19T16:37:33.180Z,20.20
2019-01-19T16:40:33.426Z,20.03
2019-01-19T16:43:35.921Z,20.43
2019-01-19T16:46:34.507Z,20.13
2019-01-19T16:49:29.810Z,19.47
2019-01-19T16:52:45.590Z,20.10
2019-01-19T16:55:30.958Z,20.23
2019-01-19T16:58:16.275Z,20.53
2019-01-19T17:01:12.324Z,20.68
2019-01-19T17:04:28.750Z,20.90
2019-01-19T17:07:39.988Z,20.52
2019-01-19T17:11:00.925Z,21.35
2019-01-19T17:14:15.180Z,20.00
2019-01-19T17:17:27.500Z,21.00
2019-01-19T17:20:30.839Z,19.57
2019-01-19T17:23:34.673Z,19.65
2019-01-19T17:26:36.908Z,19.33
2019-01-19T17:29:39.471Z,19.80
2019-01-19T17:33:05.697Z,19.25
2019-01-19T17:36:11.933Z,19.53
2019-01-19T17:39:24.587Z,18.50
2019-01-19T17:42:42.426Z,17.57
2019-01-19T17:45:41.596Z,18.70
2019-01-19T17:48:44.660Z,19.17
2019-01-19T17:51:31.546Z,17.30
2019-01-19T17:54:59.658Z,19.13
2019-01-19T17:58:01.562Z,18.73
2019-01-19T18:01:37.376Z,19.77
2019-01-19T18:04:42.728Z,17.15
2019-01-19T18:07:51.303Z,18.07
2019-01-19T18:10:46.719Z,18.07
2019-01-19T18:13:47.730Z,17.67
2019-01-19T18:16:49.498Z,17.97
2019-01-19T18:20:02.691Z,17.35
2019-01-19T18:23:28.789Z,16.90
2019-01-19T18:26:47.662Z,16.93
2019-01-19T18:29:59.584Z,17.03
2019-01-19T18:33:14.323Z,16.80
2019-01-19T18:36:26.258Z,15.83
2019-01-19T18:39:32.296Z,17.13
2019-01-19T18:42:25.151Z,16.63
2019-01-19T18:45:30.779Z,16.47
2019-01-19T18:49:12.020Z,16.87
2019-01-19T18:52:26.502Z,16.33
2019-01-19T18:55:27.420Z,16.10
2019-01-19T18:58:53.494Z,16.37
2019-01-19T19:02:10.607Z,16.30
2019-01-19T19:05:28.607Z,15.63
2019-01-19T19:08:37.216Z,15.27
2019-01-19T19:12:04.455Z,14.93
2019-01-19T19:15:06.677Z,15.30
2019-01-19T19:18:35.367Z,14.83
2019-01-19T19:21:53.430Z,15.33
2019-01-19T19:24:46.480Z,14.93
2019-01-19T19:28:03.688Z,15.43
2019-01-19T19:30:59.228Z,15.23
2019-01-19T19:34:05.884Z,15.90
2019-01-19T19:37:07.982Z,15.23
2019-01-19T19:40:16.109Z,16.20
2019-01-19T19:43:47.441Z,15.10
2019-01-19T19:46:52.771Z,14.37
2019-01-19T19:50:06.281Z,15.55
2019-01-19T19:52:40.865Z,15.93
2019-01-19T19:55:12.029Z,15.70
2019-01-19T19:57:46.598Z,16.20
2019-01-19T20:00:21.786Z,15.97
2019-01-19T20:02:56.324Z,16.03
2019-01-19T20:05:31.178Z,15.73
2019-01-19T20:08:05.710Z,14.77
2019-01-19T20:10:40.087Z,14.57
2019-01-19T20:13:15.016Z,15.53
2019-01-19T20:15:49.551Z,15.77
2019-01-19T20:18:24.129Z,15.67
2019-01-19T20:20:58.634Z,17.13
2019-01-19T20:23:33.285Z,15.80
2019-01-19T20:26:14.821Z,15.90
2019-01-19T20:28:49.518Z,15.63
2019-01-19T20:31:24.445Z,16.07
2019-01-19T20:33:58.664Z,15.93
2019-01-19T20:36:33.776Z,17.17
2019-01-19T20:39:10.092Z,15.27
2019-01-19T20:41:44.728Z,15.45
2019-01-19T20:44:19.603Z,17.20
2019-01-19T20:46:54.093Z,15.32
2019-01-19T20:49:29.069Z,14.90
2019-01-19T20:52:03.790Z,15.63
2019-01-19T20:54:45.722Z,15.73
2019-01-19T20:57:20.261Z,15.27
2019-01-19T20:59:55.022Z,15.00
2019-01-19T21:02:29.680Z,15.17
2019-01-19T21:05:10.974Z,15.10
2019-01-19T21:07:52.153Z,20.63
2019-01-19T21:10:31.678Z,16.00
2019-01-19T21:13:09.473Z,15.93
2019-01-19T21:15:44.186Z,15.13
2019-01-19T21:18:24.675Z,15.37
2019-01-19T21:20:59.191Z,15.25
2019-01-19T21:23:41.398Z,16.10
2019-01-19T21:26:15.972Z,15.80
2019-01-19T21:28:57.563Z,15.17
2019-01-19T21:31:32.409Z,14.87
2019-01-19T21:34:06.758Z,15.00
2019-01-19T21:36:47.486Z,15.80
2019-01-19T21:39:22.451Z,15.40
2019-01-19T21:41:57.374Z,15.43
2019-01-19T21:44:31.761Z,15.50
2019-01-19T21:47:13.783Z,15.00
2019-01-19T21:49:48.649Z,15.20
2019-01-19T21:52:23.515Z,14.90
2019-01-19T21:54:58.645Z,15.37
2019-01-19T21:57:40.368Z,16.60
2019-01-19T22:00:17.240Z,15.87
2019-01-19T22:02:52.331Z,17.57
2019-01-19T22:05:27.008Z,14.93
2019-01-19T22:08:07.979Z,15.67
2019-01-19T22:10:46.397Z,15.47
2019-01-19T22:13:19.553Z,15.90
2019-01-19T22:16:00.956Z,15.63
2019-01-19T22:18:35.464Z,17.57
2019-01-19T22:21:10.369Z,17.50
2019-01-19T22:23:45.135Z,17.33
2019-01-19T22:26:29.504Z,16.87
2019-01-19T22:29:04.389Z,16.53
2019-01-19T22:31:38.825Z,17.00
2019-01-19T22:34:20.417Z,17.50
2019-01-19T22:36:55.109Z,17.03
2019-01-19T22:39:30.095Z,17.62
2019-01-19T22:42:05.249Z,17.93
2019-01-19T22:44:39.984Z,17.77
2019-01-19T22:47:21.525Z,17.23
2019-01-19T22:49:56.374Z,17.23
2019-01-19T22:52:32.088Z,18.02
2019-01-19T22:55:06.702Z,18.10
2019-01-19T22:57:48.410Z,18.50
2019-01-19T23:01:06.168Z,18.20
2019-01-19T23:03:49.981Z,18.20
2019-01-19T23:06:24.722Z,19.53
2019-01-19T23:08:59.971Z,19.42
2019-01-19T23:11:35.023Z,19.87
2019-01-19T23:14:10.718Z,19.03
2019-01-19T23:16:52.586Z,19.97
2019-01-19T23:19:27.271Z,21.40
2019-01-19T23:22:02.505Z,19.30
2019-01-19T23:24:36.924Z,21.17
2019-01-19T23:27:11.925Z,22.17
2019-01-19T23:29:54.428Z,21.67
2019-01-19T23:32:29.501Z,22.17
2019-01-19T23:35:11.171Z,21.13
2019-01-19T23:37:53.780Z,21.73
2019-01-19T23:40:36.065Z,22.97
2019-01-19T23:43:11.263Z,21.20
2019-01-19T23:45:46.028Z,24.30
2019-01-19T23:48:21.174Z,21.77
2019-01-19T23:50:55.877Z,22.30
2019-01-19T23:53:37.703Z,23.23
2019-01-19T23:56:12.152Z,23.30
2019-01-19T23:58:47.692Z,22.20
